sensor_id;sensor_type;location;lat;lon;timestamp;P1;durP1;ratioP1;P2;durP2;ratioP2
8958;SDS011;4514;49.476;8.484;2022-12-29T00:02:14;3.37;;;2.30;;
8958;SDS011;4514;49.476;8.484;2022-12-29T00:04:40;2.92;;;1.90;;
8958;SDS011;4514;49.476;8.484;2022-12-29T00:07:06;2.87;;;2.10;;
8958;SDS011;4514;49.476;8.484;2022-12-29T00:09:32;2.50;;;1.88;;
8958;SDS011;4514;49.476;8.484;2022-12-29T00:11:58;2.17;;;1.85;;
8958;SDS011;4514;49.476;8.484;2022-12-29T00:14:23;3.05;;;1.85;;
8958;SDS011;4514;49.476;8.484;2022-12-29T00:17:07;2.22;;;1.70;;
8958;SDS011;4514;49.476;8.484;2022-12-29T00:19:33;3.95;;;1.92;;
8958;SDS011;4514;49.476;8.484;2022-12-29T00:22:17;2.03;;;1.77;;
8958;SDS011;4514;49.476;8.484;2022-12-29T00:25:00;2.22;;;1.75;;
8958;SDS011;4514;49.476;8.484;2022-12-29T00:27:27;4.07;;;1.80;;
8958;SDS011;4514;49.476;8.484;2022-12-29T00:30:11;1.90;;;1.63;;
8958;SDS011;4514;49.476;8.484;2022-12-29T00:32:57;4.35;;;1.67;;
8958;SDS011;4514;49.476;8.484;2022-12-29T00:36:04;2.00;;;1.80;;
8958;SDS011;4514;49.476;8.484;2022-12-29T00:38:31;2.20;;;1.77;;
8958;SDS011;4514;49.476;8.484;2022-12-29T00:41:16;2.65;;;1.70;;
8958;SDS011;4514;49.476;8.484;2022-12-29T00:44:00;2.40;;;1.70;;
8958;SDS011;4514;49.476;8.484;2022-12-29T00:46:35;4.07;;;1.80;;
8958;SDS011;4514;49.476;8.484;2022-12-29T00:49:01;3.03;;;1.75;;
8958;SDS011;4514;49.476;8.484;2022-12-29T00:51:46;2.50;;;1.73;;
8958;SDS011;4514;49.476;8.484;2022-12-29T00:54:11;2.30;;;1.67;;
8958;SDS011;4514;49.476;8.484;2022-12-29T00:56:37;3.67;;;2.10;;
8958;SDS011;4514;49.476;8.484;2022-12-29T00:59:05;2.53;;;1.92;;
8958;SDS011;4514;49.476;8.484;2022-12-29T01:01:35;2.63;;;2.00;;
8958;SDS011;4514;49.476;8.484;2022-12-29T01:04:02;2.80;;;2.05;;
8958;SDS011;4514;49.476;8.484;2022-12-29T01:06:30;2.90;;;2.10;;
8958;SDS011;4514;49.476;8.484;2022-12-29T01:08:56;3.17;;;2.00;;
8958;SDS011;4514;49.476;8.484;2022-12-29T01:11:40;2.22;;;1.80;;
8958;SDS011;4514;49.476;8.484;2022-12-29T01:14:06;2.13;;;1.83;;
8958;SDS011;4514;49.476;8.484;2022-12-29T01:16:34;3.67;;;1.75;;
8958;SDS011;4514;49.476;8.484;2022-12-29T01:19:01;3.70;;;1.85;;
8958;SDS011;4514;49.476;8.484;2022-12-29T01:21:27;2.70;;;1.42;;
8958;SDS011;4514;49.476;8.484;2022-12-29T01:23:52;2.28;;;1.70;;
8958;SDS011;4514;49.476;8.484;2022-12-29T01:26:18;2.15;;;1.60;;
8958;SDS011;4514;49.476;8.484;2022-12-29T01:28:45;4.15;;;1.65;;
8958;SDS011;4514;49.476;8.484;2022-12-29T01:31:14;2.83;;;1.70;;
8958;SDS011;4514;49.476;8.484;2022-12-29T01:33:40;4.78;;;1.50;;
8958;SDS011;4514;49.476;8.484;2022-12-29T01:36:07;1.88;;;1.52;;
8958;SDS011;4514;49.476;8.484;2022-12-29T01:38:34;1.30;;;1.20;;
8958;SDS011;4514;49.476;8.484;2022-12-29T01:41:02;3.15;;;1.40;;
8958;SDS011;4514;49.476;8.484;2022-12-29T01:49:08;1.67;;;1.30;;
8958;SDS011;4514;49.476;8.484;2022-12-29T01:54:21;1.90;;;1.17;;
8958;SDS011;4514;49.476;8.484;2022-12-29T01:56:49;1.80;;;1.15;;
8958;SDS011;4514;49.476;8.484;2022-12-29T01:59:19;1.30;;;1.20;;
8958;SDS011;4514;49.476;8.484;2022-12-29T02:01:47;3.38;;;1.48;;
8958;SDS011;4514;49.476;8.484;2022-12-29T02:04:15;1.10;;;1.00;;
8958;SDS011;4514;49.476;8.484;2022-12-29T02:06:43;1.58;;;1.05;;
8958;SDS011;4514;49.476;8.484;2022-12-29T02:09:11;1.85;;;1.27;;
8958;SDS011;4514;49.476;8.484;2022-12-29T02:11:36;1.35;;;1.10;;
8958;SDS011;4514;49.476;8.484;2022-12-29T02:14:10;1.73;;;1.23;;
8958;SDS011;4514;49.476;8.484;2022-12-29T02:33:42;1.13;;;1.02;;
8958;SDS011;4514;49.476;8.484;2022-12-29T02:36:37;2.25;;;1.27;;
8958;SDS011;4514;49.476;8.484;2022-12-29T02:39:21;1.80;;;1.10;;
8958;SDS011;4514;49.476;8.484;2022-12-29T02:44:41;1.63;;;1.27;;
8958;SDS011;4514;49.476;8.484;2022-12-29T02:47:55;1.30;;;1.20;;
8958;SDS011;4514;49.476;8.484;2022-12-29T02:50:00;1.65;;;1.30;;
8958;SDS011;4514;49.476;8.484;2022-12-29T02:52:30;1.90;;;1.35;;
8958;SDS011;4514;49.476;8.484;2022-12-29T02:54:59;2.65;;;1.42;;
8958;SDS011;4514;49.476;8.484;2022-12-29T02:59:57;2.17;;;1.42;;
8958;SDS011;4514;49.476;8.484;2022-12-29T03:10:30;2.30;;;1.42;;
8958;SDS011;4514;49.476;8.484;2022-12-29T03:18:55;2.20;;;1.70;;
8958;SDS011;4514;49.476;8.484;2022-12-29T03:21:29;2.30;;;1.40;;
8958;SDS011;4514;49.476;8.484;2022-12-29T03:24:13;1.35;;;1.23;;
8958;SDS011;4514;49.476;8.484;2022-12-29T03:26:40;2.72;;;1.42;;
8958;SDS011;4514;49.476;8.484;2022-12-29T03:29:06;1.92;;;1.33;;
8958;SDS011;4514;49.476;8.484;2022-12-29T03:31:33;2.20;;;1.40;;
8958;SDS011;4514;49.476;8.484;2022-12-29T03:34:02;1.63;;;1.40;;
8958;SDS011;4514;49.476;8.484;2022-12-29T03:36:33;1.95;;;1.35;;
8958;SDS011;4514;49.476;8.484;2022-12-29T03:39:09;1.63;;;1.25;;
8958;SDS011;4514;49.476;8.484;2022-12-29T03:41:38;1.55;;;1.42;;
8958;SDS011;4514;49.476;8.484;2022-12-29T03:44:11;1.35;;;1.13;;
8958;SDS011;4514;49.476;8.484;2022-12-29T03:46:37;2.70;;;1.45;;
8958;SDS011;4514;49.476;8.484;2022-12-29T03:49:03;4.80;;;1.63;;
8958;SDS011;4514;49.476;8.484;2022-12-29T03:51:29;1.20;;;1.10;;
8958;SDS011;4514;49.476;8.484;2022-12-29T03:53:55;3.10;;;1.30;;
8958;SDS011;4514;49.476;8.484;2022-12-29T03:56:20;1.75;;;1.50;;
8958;SDS011;4514;49.476;8.484;2022-12-29T03:58:46;2.47;;;1.52;;
8958;SDS011;4514;49.476;8.484;2022-12-29T04:01:11;3.83;;;2.00;;
8958;SDS011;4514;49.476;8.484;2022-12-29T04:03:39;1.75;;;1.63;;
8958;SDS011;4514;49.476;8.484;2022-12-29T04:06:06;3.00;;;1.73;;
8958;SDS011;4514;49.476;8.484;2022-12-29T04:08:32;1.70;;;1.30;;
8958;SDS011;4514;49.476;8.484;2022-12-29T04:10:58;1.20;;;1.10;;
8958;SDS011;4514;49.476;8.484;2022-12-29T04:13:23;1.65;;;1.33;;
8958;SDS011;4514;49.476;8.484;2022-12-29T04:15:48;2.03;;;1.30;;
8958;SDS011;4514;49.476;8.484;2022-12-29T04:18:14;1.42;;;1.33;;
8958;SDS011;4514;49.476;8.484;2022-12-29T04:20:41;3.97;;;1.48;;
8958;SDS011;4514;49.476;8.484;2022-12-29T04:23:24;2.17;;;1.17;;
8958;SDS011;4514;49.476;8.484;2022-12-29T04:25:50;1.23;;;1.10;;
8958;SDS011;4514;49.476;8.484;2022-12-29T04:28:15;2.55;;;1.30;;
8958;SDS011;4514;49.476;8.484;2022-12-29T04:30:42;2.35;;;1.40;;
8958;SDS011;4514;49.476;8.484;2022-12-29T04:33:08;2.40;;;1.30;;
8958;SDS011;4514;49.476;8.484;2022-12-29T04:35:34;2.53;;;1.20;;
8958;SDS011;4514;49.476;8.484;2022-12-29T04:38:04;1.05;;;1.00;;
8958;SDS011;4514;49.476;8.484;2022-12-29T04:40:29;2.03;;;1.17;;
8958;SDS011;4514;49.476;8.484;2022-12-29T04:42:55;2.25;;;1.40;;
8958;SDS011;4514;49.476;8.484;2022-12-29T04:45:22;1.33;;;1.10;;
8958;SDS011;4514;49.476;8.484;2022-12-29T04:47:50;1.73;;;1.30;;
8958;SDS011;4514;49.476;8.484;2022-12-29T04:50:15;1.63;;;1.50;;
8958;SDS011;4514;49.476;8.484;2022-12-29T04:52:46;3.28;;;1.23;;
8958;SDS011;4514;49.476;8.484;2022-12-29T04:55:11;3.00;;;1.40;;
8958;SDS011;4514;49.476;8.484;2022-12-29T04:57:37;1.40;;;1.30;;
8958;SDS011;4514;49.476;8.484;2022-12-29T05:00:02;3.60;;;1.35;;
8958;SDS011;4514;49.476;8.484;2022-12-29T05:02:29;1.40;;;1.30;;
8958;SDS011;4514;49.476;8.484;2022-12-29T05:04:54;2.38;;;1.17;;
8958;SDS011;4514;49.476;8.484;2022-12-29T05:07:19;1.93;;;1.47;;
8958;SDS011;4514;49.476;8.484;2022-12-29T05:09:45;2.20;;;1.20;;
8958;SDS011;4514;49.476;8.484;2022-12-29T05:12:12;1.15;;;1.05;;
8958;SDS011;4514;49.476;8.484;2022-12-29T05:14:38;1.80;;;1.42;;
8958;SDS011;4514;49.476;8.484;2022-12-29T05:17:03;1.20;;;1.10;;
8958;SDS011;4514;49.476;8.484;2022-12-29T05:19:31;1.35;;;1.17;;
8958;SDS011;4514;49.476;8.484;2022-12-29T05:21:58;1.20;;;1.10;;
8958;SDS011;4514;49.476;8.484;2022-12-29T05:24:23;1.70;;;1.02;;
8958;SDS011;4514;49.476;8.484;2022-12-29T05:26:49;1.50;;;1.40;;
8958;SDS011;4514;49.476;8.484;2022-12-29T05:29:14;1.58;;;1.20;;
8958;SDS011;4514;49.476;8.484;2022-12-29T05:31:40;2.85;;;1.25;;
8958;SDS011;4514;49.476;8.484;2022-12-29T05:34:06;2.00;;;1.27;;
8958;SDS011;4514;49.476;8.484;2022-12-29T05:36:31;1.70;;;1.30;;
8958;SDS011;4514;49.476;8.484;2022-12-29T05:38:56;1.77;;;1.30;;
8958;SDS011;4514;49.476;8.484;2022-12-29T05:41:23;2.05;;;1.40;;
8958;SDS011;4514;49.476;8.484;2022-12-29T05:43:48;1.40;;;1.15;;
8958;SDS011;4514;49.476;8.484;2022-12-29T05:46:16;1.23;;;1.13;;
8958;SDS011;4514;49.476;8.484;2022-12-29T05:48:44;3.13;;;1.40;;
8958;SDS011;4514;49.476;8.484;2022-12-29T05:51:09;1.40;;;1.30;;
8958;SDS011;4514;49.476;8.484;2022-12-29T05:53:34;2.05;;;1.30;;
8958;SDS011;4514;49.476;8.484;2022-12-29T05:56:00;3.20;;;1.40;;
8958;SDS011;4514;49.476;8.484;2022-12-29T05:58:25;1.48;;;1.27;;
8958;SDS011;4514;49.476;8.484;2022-12-29T06:00:50;1.52;;;1.30;;
8958;SDS011;4514;49.476;8.484;2022-12-29T06:03:23;2.17;;;1.20;;
8958;SDS011;4514;49.476;8.484;2022-12-29T06:05:48;1.60;;;1.50;;
8958;SDS011;4514;49.476;8.484;2022-12-29T06:08:16;1.67;;;1.17;;
8958;SDS011;4514;49.476;8.484;2022-12-29T06:10:42;1.67;;;1.40;;
8958;SDS011;4514;49.476;8.484;2022-12-29T06:13:10;1.92;;;1.38;;
8958;SDS011;4514;49.476;8.484;2022-12-29T06:15:36;1.63;;;1.30;;
8958;SDS011;4514;49.476;8.484;2022-12-29T06:18:01;2.53;;;1.40;;
8958;SDS011;4514;49.476;8.484;2022-12-29T06:20:26;3.28;;;1.70;;
8958;SDS011;4514;49.476;8.484;2022-12-29T06:22:52;2.97;;;1.30;;
8958;SDS011;4514;49.476;8.484;2022-12-29T06:25:17;1.50;;;1.40;;
8958;SDS011;4514;49.476;8.484;2022-12-29T06:27:43;2.77;;;1.73;;
8958;SDS011;4514;49.476;8.484;2022-12-29T06:30:08;1.45;;;1.30;;
8958;SDS011;4514;49.476;8.484;2022-12-29T06:32:37;2.72;;;1.30;;
8958;SDS011;4514;49.476;8.484;2022-12-29T06:35:03;4.20;;;1.50;;
8958;SDS011;4514;49.476;8.484;2022-12-29T06:37:29;1.77;;;1.40;;
8958;SDS011;4514;49.476;8.484;2022-12-29T06:39:54;1.55;;;1.45;;
8958;SDS011;4514;49.476;8.484;2022-12-29T06:42:20;3.00;;;1.50;;
8958;SDS011;4514;49.476;8.484;2022-12-29T06:44:45;2.28;;;1.40;;
8958;SDS011;4514;49.476;8.484;2022-12-29T06:47:11;1.50;;;1.40;;
8958;SDS011;4514;49.476;8.484;2022-12-29T06:49:39;1.95;;;1.60;;
8958;SDS011;4514;49.476;8.484;2022-12-29T06:52:04;1.50;;;1.40;;
8958;SDS011;4514;49.476;8.484;2022-12-29T06:54:32;1.80;;;1.27;;
8958;SDS011;4514;49.476;8.484;2022-12-29T06:56:57;2.25;;;1.40;;
8958;SDS011;4514;49.476;8.484;2022-12-29T06:59:23;1.50;;;1.40;;
8958;SDS011;4514;49.476;8.484;2022-12-29T07:01:49;1.63;;;1.52;;
8958;SDS011;4514;49.476;8.484;2022-12-29T07:04:14;2.22;;;1.40;;
8958;SDS011;4514;49.476;8.484;2022-12-29T07:06:40;1.50;;;1.40;;
8958;SDS011;4514;49.476;8.484;2022-12-29T07:09:06;2.40;;;1.48;;
8958;SDS011;4514;49.476;8.484;2022-12-29T07:11:32;2.17;;;1.58;;
8958;SDS011;4514;49.476;8.484;2022-12-29T07:13:57;2.10;;;1.48;;
8958;SDS011;4514;49.476;8.484;2022-12-29T07:16:22;1.58;;;1.45;;
8958;SDS011;4514;49.476;8.484;2022-12-29T07:18:48;3.25;;;1.50;;
8958;SDS011;4514;49.476;8.484;2022-12-29T07:21:13;1.70;;;1.60;;
8958;SDS011;4514;49.476;8.484;2022-12-29T07:23:39;3.78;;;1.52;;
8958;SDS011;4514;49.476;8.484;2022-12-29T07:26:05;1.88;;;1.33;;
8958;SDS011;4514;49.476;8.484;2022-12-29T07:28:34;2.15;;;1.95;;
8958;SDS011;4514;49.476;8.484;2022-12-29T07:31:00;3.22;;;1.75;;
8958;SDS011;4514;49.476;8.484;2022-12-29T07:33:27;2.75;;;1.60;;
8958;SDS011;4514;49.476;8.484;2022-12-29T07:35:53;2.58;;;1.77;;
8958;SDS011;4514;49.476;8.484;2022-12-29T07:38:26;2.42;;;1.80;;
8958;SDS011;4514;49.476;8.484;2022-12-29T07:40:55;2.65;;;1.50;;
8958;SDS011;4514;49.476;8.484;2022-12-29T07:43:21;2.33;;;1.63;;
8958;SDS011;4514;49.476;8.484;2022-12-29T07:45:49;1.95;;;1.75;;
8958;SDS011;4514;49.476;8.484;2022-12-29T07:48:17;4.03;;;1.70;;
8958;SDS011;4514;49.476;8.484;2022-12-29T07:50:42;5.00;;;2.13;;
8958;SDS011;4514;49.476;8.484;2022-12-29T07:53:07;2.03;;;1.67;;
8958;SDS011;4514;49.476;8.484;2022-12-29T07:55:33;2.38;;;1.50;;
8958;SDS011;4514;49.476;8.484;2022-12-29T07:58:00;3.13;;;2.00;;
8958;SDS011;4514;49.476;8.484;2022-12-29T08:00:26;3.28;;;1.90;;
8958;SDS011;4514;49.476;8.484;2022-12-29T08:02:53;3.03;;;1.80;;
8958;SDS011;4514;49.476;8.484;2022-12-29T08:05:19;2.40;;;1.95;;
8958;SDS011;4514;49.476;8.484;2022-12-29T08:07:46;2.80;;;1.92;;
8958;SDS011;4514;49.476;8.484;2022-12-29T08:10:14;2.42;;;1.85;;
8958;SDS011;4514;49.476;8.484;2022-12-29T08:12:40;2.40;;;1.58;;
8958;SDS011;4514;49.476;8.484;2022-12-29T08:15:07;3.15;;;2.00;;
8958;SDS011;4514;49.476;8.484;2022-12-29T08:17:34;3.55;;;2.25;;
8958;SDS011;4514;49.476;8.484;2022-12-29T08:19:59;2.25;;;1.73;;
8958;SDS011;4514;49.476;8.484;2022-12-29T08:22:25;3.45;;;1.80;;
8958;SDS011;4514;49.476;8.484;2022-12-29T08:24:50;2.15;;;1.98;;
8958;SDS011;4514;49.476;8.484;2022-12-29T08:27:18;3.08;;;1.90;;
8958;SDS011;4514;49.476;8.484;2022-12-29T08:29:44;2.25;;;1.80;;
8958;SDS011;4514;49.476;8.484;2022-12-29T08:32:10;3.45;;;1.90;;
8958;SDS011;4514;49.476;8.484;2022-12-29T08:34:36;3.15;;;1.90;;
8958;SDS011;4514;49.476;8.484;2022-12-29T08:37:04;4.93;;;1.98;;
8958;SDS011;4514;49.476;8.484;2022-12-29T08:39:29;2.55;;;1.83;;
8958;SDS011;4514;49.476;8.484;2022-12-29T08:41:55;4.33;;;2.00;;
8958;SDS011;4514;49.476;8.484;2022-12-29T08:44:21;2.33;;;2.00;;
8958;SDS011;4514;49.476;8.484;2022-12-29T08:46:46;2.53;;;2.00;;
8958;SDS011;4514;49.476;8.484;2022-12-29T08:49:12;2.35;;;2.03;;
8958;SDS011;4514;49.476;8.484;2022-12-29T08:51:37;6.68;;;1.90;;
8958;SDS011;4514;49.476;8.484;2022-12-29T08:54:03;3.15;;;1.95;;
8958;SDS011;4514;49.476;8.484;2022-12-29T08:56:28;3.22;;;2.20;;
8958;SDS011;4514;49.476;8.484;2022-12-29T08:58:54;2.92;;;1.85;;
8958;SDS011;4514;49.476;8.484;2022-12-29T09:01:19;4.38;;;1.98;;
8958;SDS011;4514;49.476;8.484;2022-12-29T09:03:47;3.25;;;2.15;;
8958;SDS011;4514;49.476;8.484;2022-12-29T09:06:13;3.72;;;2.08;;
8958;SDS011;4514;49.476;8.484;2022-12-29T09:08:39;3.35;;;1.95;;
8958;SDS011;4514;49.476;8.484;2022-12-29T09:11:15;2.30;;;1.98;;
8958;SDS011;4514;49.476;8.484;2022-12-29T09:13:43;3.33;;;1.90;;
8958;SDS011;4514;49.476;8.484;2022-12-29T09:16:10;4.18;;;1.98;;
8958;SDS011;4514;49.476;8.484;2022-12-29T09:18:36;2.10;;;1.83;;
8958;SDS011;4514;49.476;8.484;2022-12-29T09:21:02;2.47;;;2.17;;
8958;SDS011;4514;49.476;8.484;2022-12-29T09:23:29;3.83;;;1.90;;
8958;SDS011;4514;49.476;8.484;2022-12-29T09:25:57;3.53;;;1.80;;
8958;SDS011;4514;49.476;8.484;2022-12-29T09:28:23;2.90;;;1.80;;
8958;SDS011;4514;49.476;8.484;2022-12-29T09:30:49;2.45;;;1.95;;
8958;SDS011;4514;49.476;8.484;2022-12-29T09:33:17;2.50;;;1.63;;
8958;SDS011;4514;49.476;8.484;2022-12-29T09:35:49;2.95;;;1.70;;
8958;SDS011;4514;49.476;8.484;2022-12-29T09:38:17;2.95;;;1.90;;
8958;SDS011;4514;49.476;8.484;2022-12-29T09:40:43;2.00;;;1.60;;
8958;SDS011;4514;49.476;8.484;2022-12-29T09:48:30;2.22;;;1.85;;
8958;SDS011;4514;49.476;8.484;2022-12-29T09:50:59;3.65;;;2.40;;
8958;SDS011;4514;49.476;8.484;2022-12-29T09:53:38;2.78;;;2.00;;
8958;SDS011;4514;49.476;8.484;2022-12-29T09:56:11;2.00;;;1.77;;
8958;SDS011;4514;49.476;8.484;2022-12-29T09:58:41;2.25;;;1.90;;
8958;SDS011;4514;49.476;8.484;2022-12-29T10:04:02;1.80;;;1.70;;
8958;SDS011;4514;49.476;8.484;2022-12-29T10:06:44;2.53;;;1.80;;
8958;SDS011;4514;49.476;8.484;2022-12-29T10:23:33;2.58;;;1.90;;
8958;SDS011;4514;49.476;8.484;2022-12-29T10:26:01;4.30;;;2.15;;
8958;SDS011;4514;49.476;8.484;2022-12-29T10:30:58;2.42;;;2.08;;
8958;SDS011;4514;49.476;8.484;2022-12-29T10:33:31;2.75;;;2.00;;
8958;SDS011;4514;49.476;8.484;2022-12-29T10:36:12;3.25;;;1.90;;
8958;SDS011;4514;49.476;8.484;2022-12-29T10:38:48;4.00;;;2.10;;
8958;SDS011;4514;49.476;8.484;2022-12-29T10:44:22;4.32;;;2.40;;
8958;SDS011;4514;49.476;8.484;2022-12-29T10:46:54;2.95;;;2.10;;
8958;SDS011;4514;49.476;8.484;2022-12-29T10:49:22;2.72;;;2.17;;
8958;SDS011;4514;49.476;8.484;2022-12-29T10:51:50;3.35;;;2.30;;
8958;SDS011;4514;49.476;8.484;2022-12-29T10:57:14;4.68;;;2.13;;
8958;SDS011;4514;49.476;8.484;2022-12-29T10:59:52;2.33;;;2.00;;
8958;SDS011;4514;49.476;8.484;2022-12-29T11:02:38;2.70;;;2.28;;
8958;SDS011;4514;49.476;8.484;2022-12-29T11:07:45;2.25;;;2.08;;
8958;SDS011;4514;49.476;8.484;2022-12-29T11:10:45;2.40;;;1.83;;
8958;SDS011;4514;49.476;8.484;2022-12-29T11:13:12;6.65;;;2.30;;
8958;SDS011;4514;49.476;8.484;2022-12-29T11:15:46;3.35;;;1.83;;
8958;SDS011;4514;49.476;8.484;2022-12-29T11:18:20;2.28;;;1.80;;
8958;SDS011;4514;49.476;8.484;2022-12-29T11:20:57;2.28;;;1.65;;
8958;SDS011;4514;49.476;8.484;2022-12-29T11:23:30;3.22;;;2.05;;
8958;SDS011;4514;49.476;8.484;2022-12-29T11:28:44;6.18;;;1.98;;
8958;SDS011;4514;49.476;8.484;2022-12-29T11:31:13;6.60;;;2.00;;
8958;SDS011;4514;49.476;8.484;2022-12-29T11:33:41;3.38;;;2.22;;
8958;SDS011;4514;49.476;8.484;2022-12-29T11:36:13;6.72;;;2.72;;
8958;SDS011;4514;49.476;8.484;2022-12-29T11:39:16;3.45;;;2.42;;
8958;SDS011;4514;49.476;8.484;2022-12-29T11:41:41;2.58;;;1.80;;
8958;SDS011;4514;49.476;8.484;2022-12-29T11:44:16;4.75;;;1.77;;
8958;SDS011;4514;49.476;8.484;2022-12-29T11:46:42;4.07;;;1.85;;
8958;SDS011;4514;49.476;8.484;2022-12-29T11:49:18;3.67;;;2.05;;
8958;SDS011;4514;49.476;8.484;2022-12-29T11:51:45;4.57;;;2.03;;
8958;SDS011;4514;49.476;8.484;2022-12-29T11:54:15;3.83;;;2.55;;
8958;SDS011;4514;49.476;8.484;2022-12-29T11:56:46;3.60;;;2.08;;
8958;SDS011;4514;49.476;8.484;2022-12-29T12:04:45;2.85;;;1.77;;
8958;SDS011;4514;49.476;8.484;2022-12-29T12:07:15;3.53;;;1.58;;
8958;SDS011;4514;49.476;8.484;2022-12-29T12:15:27;3.28;;;1.50;;
8958;SDS011;4514;49.476;8.484;2022-12-29T12:17:59;2.50;;;1.50;;
8958;SDS011;4514;49.476;8.484;2022-12-29T12:23:19;2.92;;;1.30;;
8958;SDS011;4514;49.476;8.484;2022-12-29T12:26:09;2.40;;;1.15;;
8958;SDS011;4514;49.476;8.484;2022-12-29T12:28:50;1.92;;;1.00;;
8958;SDS011;4514;49.476;8.484;2022-12-29T12:31:27;1.38;;;0.88;;
8958;SDS011;4514;49.476;8.484;2022-12-29T12:34:11;1.17;;;1.08;;
8958;SDS011;4514;49.476;8.484;2022-12-29T12:36:47;4.57;;;1.02;;
8958;SDS011;4514;49.476;8.484;2022-12-29T12:39:29;1.55;;;0.90;;
8958;SDS011;4514;49.476;8.484;2022-12-29T13:12:38;2.42;;;1.70;;
8958;SDS011;4514;49.476;8.484;2022-12-29T13:23:16;2.20;;;1.30;;
8958;SDS011;4514;49.476;8.484;2022-12-29T13:28:48;2.20;;;1.40;;
8958;SDS011;4514;49.476;8.484;2022-12-29T13:31:15;2.03;;;1.13;;
8958;SDS011;4514;49.476;8.484;2022-12-29T13:36:24;2.20;;;1.05;;
8958;SDS011;4514;49.476;8.484;2022-12-29T13:39:11;1.35;;;1.10;;
8958;SDS011;4514;49.476;8.484;2022-12-29T13:41:42;2.13;;;1.13;;
8958;SDS011;4514;49.476;8.484;2022-12-29T13:44:11;2.53;;;1.17;;
8958;SDS011;4514;49.476;8.484;2022-12-29T13:46:45;2.42;;;1.10;;
8958;SDS011;4514;49.476;8.484;2022-12-29T13:49:16;1.83;;;0.82;;
8958;SDS011;4514;49.476;8.484;2022-12-29T13:51:50;1.15;;;0.93;;
8958;SDS011;4514;49.476;8.484;2022-12-29T13:59:37;2.22;;;1.25;;
8958;SDS011;4514;49.476;8.484;2022-12-29T14:04:58;1.25;;;1.10;;
8958;SDS011;4514;49.476;8.484;2022-12-29T14:07:28;2.10;;;0.93;;
8958;SDS011;4514;49.476;8.484;2022-12-29T14:09:55;2.00;;;0.80;;
8958;SDS011;4514;49.476;8.484;2022-12-29T14:12:32;1.85;;;1.00;;
8958;SDS011;4514;49.476;8.484;2022-12-29T14:17:35;1.88;;;1.33;;
8958;SDS011;4514;49.476;8.484;2022-12-29T14:20:02;2.35;;;1.20;;
8958;SDS011;4514;49.476;8.484;2022-12-29T14:22:32;2.70;;;1.15;;
8958;SDS011;4514;49.476;8.484;2022-12-29T14:24:58;1.92;;;0.93;;
8958;SDS011;4514;49.476;8.484;2022-12-29T14:29:52;2.17;;;1.00;;
8958;SDS011;4514;49.476;8.484;2022-12-29T14:34:46;1.70;;;1.00;;
8958;SDS011;4514;49.476;8.484;2022-12-29T14:37:29;4.53;;;1.13;;
8958;SDS011;4514;49.476;8.484;2022-12-29T14:42:39;1.35;;;1.17;;
8958;SDS011;4514;49.476;8.484;2022-12-29T14:45:07;2.97;;;1.38;;
8958;SDS011;4514;49.476;8.484;2022-12-29T14:47:47;2.05;;;1.02;;
8958;SDS011;4514;49.476;8.484;2022-12-29T14:50:14;2.85;;;1.52;;
8958;SDS011;4514;49.476;8.484;2022-12-29T14:52:44;2.42;;;1.13;;
8958;SDS011;4514;49.476;8.484;2022-12-29T14:57:42;2.88;;;1.02;;
8958;SDS011;4514;49.476;8.484;2022-12-29T15:00:23;2.67;;;1.00;;
8958;SDS011;4514;49.476;8.484;2022-12-29T15:03:06;2.33;;;0.90;;
8958;SDS011;4514;49.476;8.484;2022-12-29T15:08:12;3.03;;;1.00;;
8958;SDS011;4514;49.476;8.484;2022-12-29T15:10:42;4.55;;;1.20;;
8958;SDS011;4514;49.476;8.484;2022-12-29T15:13:18;1.60;;;1.10;;
8958;SDS011;4514;49.476;8.484;2022-12-29T15:15:50;3.22;;;1.17;;
8958;SDS011;4514;49.476;8.484;2022-12-29T15:18:31;2.58;;;1.10;;
8958;SDS011;4514;49.476;8.484;2022-12-29T15:21:02;2.83;;;1.23;;
8958;SDS011;4514;49.476;8.484;2022-12-29T15:23:29;1.88;;;1.20;;
8958;SDS011;4514;49.476;8.484;2022-12-29T15:28:25;3.42;;;1.20;;
8958;SDS011;4514;49.476;8.484;2022-12-29T15:33:41;1.50;;;1.00;;
8958;SDS011;4514;49.476;8.484;2022-12-29T15:36:11;2.10;;;1.27;;
8958;SDS011;4514;49.476;8.484;2022-12-29T15:38:40;2.63;;;1.42;;
8958;SDS011;4514;49.476;8.484;2022-12-29T15:41:06;3.22;;;1.60;;
8958;SDS011;4514;49.476;8.484;2022-12-29T15:46:29;1.58;;;1.33;;
8958;SDS011;4514;49.476;8.484;2022-12-29T15:48:55;2.47;;;1.13;;
8958;SDS011;4514;49.476;8.484;2022-12-29T15:51:30;2.72;;;1.63;;
8958;SDS011;4514;49.476;8.484;2022-12-29T15:53:58;2.47;;;1.50;;
8958;SDS011;4514;49.476;8.484;2022-12-29T15:56:24;1.25;;;1.15;;
8958;SDS011;4514;49.476;8.484;2022-12-29T15:58:53;3.42;;;1.35;;
8958;SDS011;4514;49.476;8.484;2022-12-29T16:01:40;3.17;;;1.52;;
8958;SDS011;4514;49.476;8.484;2022-12-29T16:04:05;2.55;;;1.20;;
8958;SDS011;4514;49.476;8.484;2022-12-29T16:11:31;2.50;;;1.40;;
8958;SDS011;4514;49.476;8.484;2022-12-29T16:13:59;3.17;;;1.02;;
8958;SDS011;4514;49.476;8.484;2022-12-29T16:16:33;2.63;;;1.58;;
8958;SDS011;4514;49.476;8.484;2022-12-29T16:19:02;1.83;;;1.20;;
8958;SDS011;4514;49.476;8.484;2022-12-29T16:21:33;3.17;;;1.17;;
8958;SDS011;4514;49.476;8.484;2022-12-29T16:24:01;2.08;;;1.13;;
8958;SDS011;4514;49.476;8.484;2022-12-29T16:26:29;3.03;;;1.05;;
8958;SDS011;4514;49.476;8.484;2022-12-29T16:28:58;3.50;;;1.13;;
8958;SDS011;4514;49.476;8.484;2022-12-29T16:31:31;1.50;;;1.33;;
8958;SDS011;4514;49.476;8.484;2022-12-29T16:34:42;4.53;;;1.60;;
8958;SDS011;4514;49.476;8.484;2022-12-29T16:36:57;2.55;;;1.30;;
8958;SDS011;4514;49.476;8.484;2022-12-29T16:39:31;2.03;;;1.20;;
8958;SDS011;4514;49.476;8.484;2022-12-29T16:41:56;3.55;;;1.50;;
8958;SDS011;4514;49.476;8.484;2022-12-29T16:44:26;3.45;;;1.58;;
8958;SDS011;4514;49.476;8.484;2022-12-29T16:46:56;3.05;;;1.30;;
8958;SDS011;4514;49.476;8.484;2022-12-29T16:49:23;2.85;;;1.58;;
8958;SDS011;4514;49.476;8.484;2022-12-29T16:51:48;3.57;;;1.80;;
8958;SDS011;4514;49.476;8.484;2022-12-29T16:54:19;2.10;;;1.90;;
8958;SDS011;4514;49.476;8.484;2022-12-29T16:56:47;3.53;;;1.73;;
8958;SDS011;4514;49.476;8.484;2022-12-29T16:59:26;3.22;;;1.70;;
8958;SDS011;4514;49.476;8.484;2022-12-29T17:01:57;2.20;;;1.52;;
8958;SDS011;4514;49.476;8.484;2022-12-29T17:04:24;2.85;;;1.77;;
8958;SDS011;4514;49.476;8.484;2022-12-29T17:06:49;2.75;;;1.50;;
8958;SDS011;4514;49.476;8.484;2022-12-29T17:09:19;2.25;;;1.40;;
8958;SDS011;4514;49.476;8.484;2022-12-29T17:11:50;2.92;;;1.70;;
8958;SDS011;4514;49.476;8.484;2022-12-29T17:14:21;3.20;;;1.60;;
8958;SDS011;4514;49.476;8.484;2022-12-29T17:16:54;3.35;;;1.55;;
8958;SDS011;4514;49.476;8.484;2022-12-29T17:19:30;1.50;;;1.40;;
8958;SDS011;4514;49.476;8.484;2022-12-29T17:21:56;1.92;;;1.27;;
8958;SDS011;4514;49.476;8.484;2022-12-29T17:24:22;3.90;;;1.65;;
8958;SDS011;4514;49.476;8.484;2022-12-29T17:26:48;2.20;;;1.50;;
8958;SDS011;4514;49.476;8.484;2022-12-29T17:29:22;2.28;;;1.50;;
8958;SDS011;4514;49.476;8.484;2022-12-29T17:31:54;1.65;;;1.55;;
8958;SDS011;4514;49.476;8.484;2022-12-29T17:34:19;1.77;;;1.40;;
8958;SDS011;4514;49.476;8.484;2022-12-29T17:36:45;1.95;;;1.55;;
8958;SDS011;4514;49.476;8.484;2022-12-29T17:39:15;2.80;;;1.70;;
8958;SDS011;4514;49.476;8.484;2022-12-29T17:41:43;3.08;;;2.40;;
8958;SDS011;4514;49.476;8.484;2022-12-29T17:44:09;3.17;;;2.33;;
8958;SDS011;4514;49.476;8.484;2022-12-29T17:46:40;3.58;;;2.42;;
8958;SDS011;4514;49.476;8.484;2022-12-29T17:49:09;4.85;;;2.90;;
8958;SDS011;4514;49.476;8.484;2022-12-29T17:51:36;3.83;;;2.30;;
8958;SDS011;4514;49.476;8.484;2022-12-29T17:54:01;3.05;;;2.03;;
8958;SDS011;4514;49.476;8.484;2022-12-29T17:56:29;3.90;;;2.33;;
8958;SDS011;4514;49.476;8.484;2022-12-29T17:58:55;3.25;;;2.08;;
8958;SDS011;4514;49.476;8.484;2022-12-29T18:01:23;3.97;;;2.13;;
8958;SDS011;4514;49.476;8.484;2022-12-29T18:03:50;2.90;;;2.15;;
8958;SDS011;4514;49.476;8.484;2022-12-29T18:06:18;4.60;;;2.53;;
8958;SDS011;4514;49.476;8.484;2022-12-29T18:08:48;5.13;;;2.65;;
8958;SDS011;4514;49.476;8.484;2022-12-29T18:11:23;3.70;;;2.20;;
8958;SDS011;4514;49.476;8.484;2022-12-29T18:13:51;2.70;;;2.42;;
8958;SDS011;4514;49.476;8.484;2022-12-29T18:16:17;4.35;;;2.45;;
8958;SDS011;4514;49.476;8.484;2022-12-29T18:18:45;3.67;;;2.17;;
8958;SDS011;4514;49.476;8.484;2022-12-29T18:21:17;4.57;;;2.30;;
8958;SDS011;4514;49.476;8.484;2022-12-29T18:23:44;4.55;;;2.33;;
8958;SDS011;4514;49.476;8.484;2022-12-29T18:28:39;3.95;;;2.00;;